createdAt,value
2023-09-08T00:01:47.925Z,13.35
2023-09-08T00:04:16.318Z,13.88
2023-09-08T00:06:47.197Z,13.50
2023-09-08T00:09:15.648Z,13.88
2023-09-08T00:11:44.054Z,13.18
2023-09-08T00:14:13.805Z,14.35
2023-09-08T00:16:43.949Z,13.75
2023-09-08T00:19:13.024Z,13.35
2023-09-08T00:21:41.248Z,15.02
2023-09-08T00:24:09.742Z,13.18
2023-09-08T00:26:38.054Z,14.15
2023-09-08T00:29:06.412Z,14.38
2023-09-08T00:31:36.022Z,14.95
2023-09-08T00:34:04.697Z,13.50
2023-09-08T00:36:34.498Z,13.45
2023-09-08T00:39:03.801Z,13.45
2023-09-08T00:41:34.601Z,12.60
2023-09-08T00:44:03.204Z,13.75
2023-09-08T00:46:31.912Z,13.90
2023-09-08T00:49:02.432Z,13.65
2023-09-08T00:51:30.873Z,13.88
2023-09-08T00:53:59.265Z,14.93
2023-09-08T00:56:28.089Z,13.43
2023-09-08T00:58:58.980Z,13.35
2023-09-08T01:01:30.219Z,13.13
2023-09-08T01:03:58.605Z,13.80
2023-09-08T01:06:31.647Z,14.25
2023-09-08T01:09:00.340Z,13.80
2023-09-08T01:11:28.816Z,15.52
2023-09-08T01:13:57.092Z,14.43
2023-09-08T01:16:25.285Z,15.70
2023-09-08T01:18:55.141Z,15.73
2023-09-08T01:21:52.745Z,14.70
2023-09-08T01:24:41.960Z,13.80
2023-09-08T01:27:16.242Z,15.55
2023-09-08T01:29:46.577Z,13.95
2023-09-08T01:32:14.940Z,14.93
2023-09-08T01:34:48.107Z,14.55
2023-09-08T01:37:16.399Z,15.48
2023-09-08T01:39:44.588Z,14.05
2023-09-08T01:42:16.038Z,15.68
2023-09-08T01:44:47.118Z,15.35
2023-09-08T01:47:16.214Z,14.32
2023-09-08T01:49:44.517Z,15.73
2023-09-08T01:52:14.453Z,15.13
2023-09-08T01:54:42.892Z,14.73
2023-09-08T01:57:15.169Z,15.40
2023-09-08T01:59:43.415Z,15.43
2023-09-08T02:02:13.899Z,14.25
2023-09-08T02:04:42.525Z,14.50
2023-09-08T02:07:10.746Z,14.15
2023-09-08T02:09:40.136Z,15.55
2023-09-08T02:12:09.885Z,16.08
2023-09-08T02:14:42.210Z,14.65
2023-09-08T02:17:11.018Z,14.27
2023-09-08T02:19:39.208Z,13.18
2023-09-08T02:22:07.543Z,13.75
2023-09-08T02:24:35.802Z,14.68
2023-09-08T02:27:04.619Z,15.30
2023-09-08T02:29:33.791Z,15.25
2023-09-08T02:32:05.053Z,14.85
2023-09-08T02:34:37.662Z,14.40
2023-09-08T02:37:08.360Z,14.13
2023-09-08T02:39:36.987Z,15.93
2023-09-08T02:42:10.263Z,15.50
2023-09-08T02:44:40.357Z,14.40
2023-09-08T02:47:11.341Z,14.15
2023-09-08T02:49:41.183Z,13.95
2023-09-08T02:52:09.479Z,13.85
2023-09-08T02:54:37.681Z,13.65
2023-09-08T02:57:08.159Z,14.48
2023-09-08T02:59:38.813Z,9.95
2023-09-08T03:02:07.257Z,9.73
2023-09-08T03:04:37.310Z,11.32
2023-09-08T03:07:08.085Z,12.05
2023-09-08T03:09:38.965Z,12.15
2023-09-08T03:12:11.303Z,12.70
2023-09-08T03:14:43.716Z,13.65
2023-09-08T03:17:12.031Z,13.63
2023-09-08T03:19:41.741Z,13.65
2023-09-08T03:22:12.495Z,13.23
2023-09-08T03:24:40.769Z,11.32
2023-09-08T03:27:09.698Z,11.75
2023-09-08T03:29:38.329Z,11.77
2023-09-08T03:32:07.776Z,11.90
2023-09-08T03:34:41.025Z,11.98
2023-09-08T03:37:16.232Z,12.48
2023-09-08T03:39:47.584Z,11.55
2023-09-08T03:42:15.835Z,12.48
2023-09-08T03:44:44.038Z,11.93
2023-09-08T03:47:12.372Z,12.55
2023-09-08T03:49:40.652Z,12.32
2023-09-08T03:52:09.211Z,12.13
2023-09-08T03:54:39.249Z,11.73
2023-09-08T03:57:07.505Z,13.05
2023-09-08T03:59:37.476Z,11.10
2023-09-08T04:02:05.999Z,11.40
2023-09-08T04:04:34.306Z,10.75
2023-09-08T04:07:06.952Z,11.75
2023-09-08T04:09:36.289Z,11.15
2023-09-08T04:12:06.802Z,11.20
2023-09-08T04:14:37.486Z,11.02
2023-09-08T04:17:06.036Z,11.13
2023-09-08T04:19:35.057Z,11.43
2023-09-08T04:22:03.422Z,11.00
2023-09-08T04:24:31.966Z,11.07
2023-09-08T04:27:00.413Z,11.13
2023-09-08T04:29:31.071Z,10.88
2023-09-08T04:31:59.316Z,11.15
2023-09-08T04:34:27.631Z,11.73
2023-09-08T04:36:56.144Z,10.63
2023-09-08T04:39:24.460Z,10.88
2023-09-08T04:41:53.384Z,11.75
2023-09-08T04:44:23.538Z,10.23
2023-09-08T04:46:54.676Z,10.35
2023-09-08T04:49:23.224Z,11.32
2023-09-08T04:51:51.515Z,11.02
2023-09-08T04:54:22.376Z,10.75
2023-09-08T04:56:52.071Z,10.82
2023-09-08T04:59:20.504Z,10.48
2023-09-08T05:01:49.277Z,10.50
2023-09-08T05:04:19.344Z,11.25
2023-09-08T05:06:48.380Z,11.32
2023-09-08T05:09:19.470Z,10.50
2023-09-08T05:11:48.072Z,10.70
2023-09-08T05:14:16.519Z,11.45
2023-09-08T05:16:47.821Z,10.95
2023-09-08T05:19:21.836Z,10.93
2023-09-08T05:21:52.069Z,10.43
2023-09-08T05:24:23.167Z,10.70
2023-09-08T05:26:54.027Z,10.68
2023-09-08T05:29:22.842Z,11.85
2023-09-08T05:31:52.903Z,10.02
2023-09-08T05:34:22.816Z,11.45
2023-09-08T05:36:51.428Z,10.75
2023-09-08T05:39:20.409Z,10.00
2023-09-08T05:41:49.344Z,10.98
2023-09-08T05:44:17.655Z,10.68
2023-09-08T05:46:47.294Z,11.07
2023-09-08T05:49:16.216Z,10.25
2023-09-08T05:51:48.087Z,10.80
2023-09-08T05:54:18.614Z,11.20
2023-09-08T05:56:47.230Z,10.52
2023-09-08T05:59:16.286Z,10.70
2023-09-08T06:01:44.980Z,10.68
2023-09-08T06:04:14.361Z,11.60
2023-09-08T06:06:42.964Z,10.70
2023-09-08T06:09:13.515Z,10.80
2023-09-08T06:11:45.043Z,10.50
2023-09-08T06:14:13.590Z,11.13
2023-09-08T06:16:44.966Z,10.18
2023-09-08T06:19:14.800Z,11.02
2023-09-08T06:21:43.687Z,11.10
2023-09-08T06:24:15.637Z,10.68
2023-09-08T06:26:47.153Z,11.07
2023-09-08T06:29:15.684Z,11.18
2023-09-08T06:31:43.910Z,10.40
2023-09-08T06:34:12.318Z,11.50
2023-09-08T06:36:43.691Z,10.45
2023-09-08T06:39:18.969Z,10.90
2023-09-08T06:41:47.308Z,9.45
2023-09-08T06:44:21.427Z,9.82
2023-09-08T06:46:49.745Z,10.05
2023-09-08T06:49:18.226Z,9.15
2023-09-08T06:51:48.707Z,10.15
2023-09-08T06:54:19.466Z,10.30
2023-09-08T06:56:48.299Z,9.00
2023-09-08T06:59:17.399Z,9.85
2023-09-08T07:01:46.026Z,9.10
2023-09-08T07:04:15.791Z,9.13
2023-09-08T07:06:46.177Z,9.13
2023-09-08T07:09:15.288Z,9.57
2023-09-08T07:11:47.764Z,9.40
2023-09-08T07:14:16.127Z,10.38
2023-09-08T07:16:46.176Z,9.05
2023-09-08T07:19:14.715Z,9.20
2023-09-08T07:21:45.363Z,9.13
2023-09-08T07:24:14.496Z,8.50
2023-09-08T07:26:43.347Z,8.48
2023-09-08T07:29:13.140Z,8.27
2023-09-08T07:31:41.995Z,8.48
2023-09-08T07:34:10.601Z,7.95
2023-09-08T07:36:39.022Z,7.38
2023-09-08T07:39:07.426Z,8.43
2023-09-08T07:41:35.844Z,8.20
2023-09-08T07:44:04.147Z,8.30
2023-09-08T07:46:33.924Z,8.50
2023-09-08T07:49:02.565Z,8.13
2023-09-08T07:51:33.164Z,8.07
2023-09-08T07:54:03.034Z,7.88
2023-09-08T07:56:31.329Z,8.18
2023-09-08T07:58:59.548Z,7.68
2023-09-08T08:01:27.954Z,7.93
2023-09-08T08:03:59.787Z,6.95
2023-09-08T08:06:29.627Z,8.48
2023-09-08T08:08:59.648Z,7.97
2023-09-08T08:11:29.579Z,7.93
2023-09-08T08:14:04.160Z,7.07
2023-09-08T08:16:32.541Z,7.57
2023-09-08T08:19:02.186Z,7.10
2023-09-08T08:21:31.251Z,8.18
2023-09-08T08:23:59.592Z,7.45
2023-09-08T08:26:30.939Z,7.45
2023-09-08T08:29:01.393Z,7.22
2023-09-08T08:31:29.931Z,7.53
2023-09-08T08:33:58.220Z,7.07
2023-09-08T08:36:28.213Z,7.72
2023-09-08T08:38:58.409Z,7.30
2023-09-08T08:41:26.937Z,7.63
2023-09-08T08:43:56.192Z,7.47
2023-09-08T08:46:25.260Z,7.32
2023-09-08T08:48:56.547Z,7.60
2023-09-08T08:51:30.458Z,7.25
2023-09-08T08:53:58.931Z,7.20
2023-09-08T08:56:29.613Z,6.65
2023-09-08T08:59:04.277Z,7.50
2023-09-08T09:01:33.825Z,6.95
2023-09-08T09:04:02.386Z,8.20
2023-09-08T09:06:32.394Z,7.15
2023-09-08T09:09:02.130Z,7.60
2023-09-08T09:11:31.848Z,6.53
2023-09-08T09:14:00.243Z,7.05
2023-09-08T09:16:30.030Z,7.18
2023-09-08T09:19:01.651Z,7.13
2023-09-08T09:21:47.259Z,7.00
2023-09-08T09:24:21.161Z,6.53
2023-09-08T09:26:56.015Z,7.43
2023-09-08T09:29:24.558Z,7.07
2023-09-08T09:31:54.785Z,7.43
2023-09-08T09:34:23.518Z,8.15
2023-09-08T09:36:53.955Z,7.85
2023-09-08T09:39:23.536Z,6.60
2023-09-08T09:41:55.020Z,7.00
2023-09-08T09:44:24.309Z,6.97
2023-09-08T09:46:54.656Z,6.32
2023-09-08T09:49:24.888Z,6.43
2023-09-08T09:51:56.619Z,6.45
2023-09-08T09:54:24.855Z,6.40
2023-09-08T09:56:54.418Z,6.43
2023-09-08T09:59:24.610Z,6.15
2023-09-08T10:01:54.357Z,6.43
2023-09-08T10:04:23.177Z,6.18
2023-09-08T10:06:56.181Z,6.93
2023-09-08T10:09:26.301Z,5.65
2023-09-08T10:11:57.661Z,6.00
2023-09-08T10:14:27.373Z,6.68
2023-09-08T10:17:01.061Z,6.18
2023-09-08T10:19:31.689Z,6.18
2023-09-08T10:22:04.668Z,6.85
2023-09-08T10:24:36.925Z,6.30
2023-09-08T10:27:09.993Z,5.97
2023-09-08T10:29:38.804Z,6.05
2023-09-08T10:32:10.949Z,6.13
2023-09-08T10:34:42.552Z,5.35
2023-09-08T10:37:29.046Z,5.53
2023-09-08T10:40:18.959Z,5.10
2023-09-08T10:42:48.799Z,5.25
2023-09-08T10:45:18.810Z,5.90
2023-09-08T10:48:02.167Z,4.90
2023-09-08T10:50:37.867Z,4.72
2023-09-08T10:53:15.483Z,4.75
2023-09-08T10:55:56.808Z,4.90
2023-09-08T10:58:35.147Z,5.38
2023-09-08T11:01:06.737Z,4.93
2023-09-08T11:03:50.943Z,5.70
2023-09-08T11:06:20.340Z,5.93
2023-09-08T11:08:54.067Z,5.90
2023-09-08T11:11:24.984Z,4.80
2023-09-08T11:13:53.311Z,5.63
2023-09-08T11:16:24.485Z,5.28
2023-09-08T11:18:53.947Z,4.95
2023-09-08T11:21:24.915Z,4.65
2023-09-08T11:23:53.246Z,4.43
2023-09-08T11:26:23.902Z,5.07
2023-09-08T11:28:54.753Z,5.25
2023-09-08T11:31:23.081Z,4.88
2023-09-08T11:33:52.962Z,4.82
2023-09-08T11:36:21.279Z,4.82
2023-09-08T11:38:49.480Z,4.18
2023-09-08T11:41:18.674Z,5.18
2023-09-08T11:43:48.909Z,4.05
2023-09-08T11:46:19.267Z,4.30
2023-09-08T11:48:48.762Z,4.43
2023-09-08T11:51:19.646Z,4.07
2023-09-08T11:53:48.019Z,4.28
2023-09-08T11:56:16.294Z,4.03
2023-09-08T11:58:46.403Z,4.15
2023-09-08T12:01:16.992Z,4.38
2023-09-08T12:03:54.172Z,4.35
2023-09-08T12:06:25.719Z,4.60
2023-09-08T12:08:54.072Z,3.85
2023-09-08T12:11:23.953Z,4.88
2023-09-08T12:13:54.117Z,5.10
2023-09-08T12:16:24.269Z,4.30
2023-09-08T12:18:52.918Z,4.68
2023-09-08T12:21:23.353Z,4.20
2023-09-08T12:23:52.389Z,4.75
2023-09-08T12:26:20.673Z,4.30
2023-09-08T12:28:49.532Z,4.60
2023-09-08T12:31:19.362Z,4.53
2023-09-08T12:33:49.049Z,4.47
2023-09-08T12:36:20.721Z,4.38
2023-09-08T12:38:56.424Z,4.78
2023-09-08T12:41:24.733Z,5.28
2023-09-08T12:43:52.938Z,4.90
2023-09-08T12:46:23.253Z,4.30
2023-09-08T12:48:53.268Z,4.68
2023-09-08T12:51:21.591Z,4.93
2023-09-08T12:53:50.823Z,4.90
2023-09-08T12:56:19.550Z,4.75
2023-09-08T12:58:48.187Z,4.45
2023-09-08T13:01:16.484Z,3.97
2023-09-08T13:03:45.058Z,4.68
2023-09-08T13:06:16.868Z,4.38
2023-09-08T13:08:47.385Z,4.15
2023-09-08T13:11:15.663Z,4.30
2023-09-08T13:13:45.691Z,4.30
2023-09-08T13:16:15.433Z,4.55
2023-09-08T13:18:46.144Z,4.05
2023-09-08T13:21:18.168Z,4.03
2023-09-08T13:23:46.466Z,4.15
2023-09-08T13:26:14.716Z,4.28
2023-09-08T13:28:43.030Z,3.97
2023-09-08T13:31:11.813Z,4.47
2023-09-08T13:33:40.405Z,4.18
2023-09-08T13:36:08.909Z,3.85
2023-09-08T13:38:39.114Z,4.18
2023-09-08T13:41:07.930Z,4.03
2023-09-08T13:43:36.197Z,3.53
2023-09-08T13:46:04.653Z,3.10
2023-09-08T13:48:35.967Z,3.40
2023-09-08T13:51:06.658Z,3.50
2023-09-08T13:53:43.195Z,3.53
2023-09-08T13:56:20.319Z,4.00
2023-09-08T13:58:52.252Z,3.60
2023-09-08T14:01:27.188Z,4.00
2023-09-08T14:04:03.528Z,3.58
2023-09-08T14:14:10.812Z,4.07
2023-09-08T14:16:39.927Z,4.13
2023-09-08T14:19:08.214Z,3.83
2023-09-08T14:21:38.306Z,3.80
2023-09-08T14:24:07.125Z,4.05
2023-09-08T14:26:36.124Z,3.75
2023-09-08T14:29:08.502Z,3.90
2023-09-08T14:31:37.077Z,3.90
2023-09-08T14:34:05.899Z,3.75
2023-09-08T14:36:36.616Z,4.15
2023-09-08T14:39:05.057Z,3.17
2023-09-08T14:41:35.244Z,3.42
2023-09-08T14:44:05.087Z,3.67
2023-09-08T14:46:33.658Z,3.53
2023-09-08T14:49:01.894Z,3.75
2023-09-08T14:51:30.345Z,3.63
2023-09-08T14:53:58.657Z,3.38
2023-09-08T14:56:26.990Z,3.60
2023-09-08T14:58:55.153Z,3.85
2023-09-08T15:01:25.005Z,3.83
2023-09-08T15:03:53.442Z,3.60
2023-09-08T15:06:25.271Z,4.63
2023-09-08T15:08:54.867Z,4.10
2023-09-08T15:11:23.231Z,4.05
2023-09-08T15:13:51.534Z,4.13
2023-09-08T15:16:21.532Z,3.92
2023-09-08T15:18:52.141Z,4.32
2023-09-08T15:21:26.783Z,3.75
2023-09-08T15:23:55.162Z,4.18
2023-09-08T15:26:23.597Z,4.30
2023-09-08T15:28:53.617Z,4.22
2023-09-08T15:31:24.719Z,4.30
2023-09-08T15:33:54.601Z,3.60
2023-09-08T15:36:26.792Z,3.72
2023-09-08T15:38:55.095Z,3.90
2023-09-08T15:41:23.320Z,4.20
2023-09-08T15:43:53.322Z,3.95
2023-09-08T15:46:22.317Z,4.15
2023-09-08T15:48:50.606Z,4.03
2023-09-08T15:51:20.290Z,8.70
2023-09-08T15:53:48.674Z,9.75
2023-09-08T15:56:17.000Z,9.80
2023-09-08T15:58:45.475Z,9.85
2023-09-08T16:01:15.095Z,12.93
2023-09-08T16:03:47.165Z,12.05
2023-09-08T16:06:15.651Z,13.73
2023-09-08T16:08:45.304Z,15.55
2023-09-08T16:11:13.898Z,12.77
2023-09-08T16:13:44.268Z,17.08
2023-09-08T16:16:12.541Z,16.88
2023-09-08T16:18:42.399Z,15.88
2023-09-08T16:21:10.890Z,17.75
2023-09-08T16:23:39.408Z,18.67
2023-09-08T16:26:09.465Z,15.40
2023-09-08T16:28:37.760Z,18.42
2023-09-08T16:31:06.764Z,19.23
2023-09-08T16:33:35.694Z,15.93
2023-09-08T16:36:04.615Z,21.40
2023-09-08T16:38:34.072Z,19.88
2023-09-08T16:41:02.424Z,17.65
2023-09-08T16:43:32.041Z,17.92
2023-09-08T16:46:00.595Z,24.23
2023-09-08T16:48:28.982Z,19.40
2023-09-08T16:50:59.387Z,24.00
2023-09-08T16:53:27.636Z,23.33
2023-09-08T16:55:55.940Z,24.38
2023-09-08T16:58:25.072Z,26.17
2023-09-08T17:00:56.128Z,28.83
2023-09-08T17:03:24.504Z,23.88
2023-09-08T17:05:52.978Z,25.45
2023-09-08T17:08:23.591Z,27.10
2023-09-08T17:10:51.908Z,25.80
2023-09-08T17:13:20.156Z,24.75
2023-09-08T17:15:48.528Z,23.60
2023-09-08T17:18:19.681Z,23.65
2023-09-08T17:20:49.580Z,25.92
2023-09-08T17:23:19.120Z,27.42
2023-09-08T17:25:50.047Z,28.00
2023-09-08T17:28:19.285Z,24.77
2023-09-08T17:30:48.670Z,26.42
2023-09-08T17:33:20.222Z,25.85
2023-09-08T17:35:51.132Z,28.15
2023-09-08T17:38:19.731Z,28.02
2023-09-08T17:40:49.182Z,25.88
2023-09-08T17:43:17.523Z,29.25
2023-09-08T17:45:48.851Z,28.05
2023-09-08T17:48:18.599Z,28.25
2023-09-08T17:50:49.138Z,26.77
2023-09-08T17:53:17.407Z,27.33
2023-09-08T17:55:45.657Z,26.83
2023-09-08T17:58:16.872Z,27.05
2023-09-08T18:00:47.362Z,28.52
2023-09-08T18:03:19.769Z,26.52
2023-09-08T18:05:51.143Z,25.73
2023-09-08T18:08:19.430Z,26.23
2023-09-08T18:10:48.119Z,26.17
2023-09-08T18:13:16.434Z,25.63
2023-09-08T18:15:44.725Z,26.83
2023-09-08T18:18:13.190Z,26.73
2023-09-08T18:20:41.516Z,25.60
2023-09-08T18:23:11.199Z,27.58
2023-09-08T18:25:39.490Z,31.88
2023-09-08T18:28:08.899Z,32.67
2023-09-08T18:30:37.250Z,30.98
2023-09-08T18:33:05.754Z,33.70
2023-09-08T18:35:35.164Z,38.58
2023-09-08T18:38:03.744Z,34.00
2023-09-08T18:40:33.502Z,37.35
2023-09-08T18:43:01.827Z,35.28
2023-09-08T18:45:30.238Z,37.72
2023-09-08T18:47:58.552Z,38.65
2023-09-08T18:50:26.981Z,38.00
2023-09-08T18:52:55.890Z,47.70
2023-09-08T18:55:25.178Z,49.45
2023-09-08T18:57:55.162Z,44.85
2023-09-08T19:00:23.892Z,45.60
2023-09-08T19:02:52.328Z,40.50
2023-09-08T19:05:20.836Z,44.55
2023-09-08T19:07:49.239Z,41.20
2023-09-08T19:10:18.468Z,40.53
2023-09-08T19:12:46.675Z,40.60
2023-09-08T19:15:17.262Z,40.25
2023-09-08T19:17:46.728Z,40.10
2023-09-08T19:20:15.138Z,39.92
2023-09-08T19:22:43.594Z,42.17
2023-09-08T19:25:11.923Z,53.70
2023-09-08T19:27:40.353Z,51.92
2023-09-08T19:30:13.926Z,42.75
2023-09-08T19:32:43.566Z,40.70
2023-09-08T19:35:12.432Z,40.70
2023-09-08T19:37:40.799Z,43.05
2023-09-08T19:40:11.313Z,42.50
2023-09-08T19:42:40.041Z,43.72
2023-09-08T19:45:08.981Z,38.45
2023-09-08T19:47:39.254Z,37.45
2023-09-08T19:50:13.030Z,39.75
2023-09-08T19:52:41.769Z,43.70
2023-09-08T19:55:10.930Z,42.75
2023-09-08T19:57:39.230Z,43.63
2023-09-08T20:00:09.276Z,45.60
2023-09-08T20:02:44.577Z,44.65
2023-09-08T20:05:14.352Z,46.55
2023-09-08T20:07:44.231Z,46.33
2023-09-08T20:10:13.263Z,46.25
2023-09-08T20:12:42.654Z,48.67
2023-09-08T20:15:13.809Z,45.42
2023-09-08T20:17:44.000Z,43.13
2023-09-08T20:20:14.415Z,47.95
2023-09-08T20:22:42.690Z,48.92
2023-09-08T20:25:11.235Z,50.30
2023-09-08T20:27:39.521Z,50.55
2023-09-08T20:30:08.918Z,53.60
2023-09-08T20:32:37.211Z,53.35
2023-09-08T20:35:05.987Z,53.45
2023-09-08T20:37:35.790Z,56.40
2023-09-08T20:40:04.768Z,57.00
2023-09-08T20:42:33.025Z,52.47
2023-09-08T20:45:01.704Z,53.63
2023-09-08T20:47:30.473Z,54.58
2023-09-08T20:50:00.930Z,54.58
2023-09-08T20:52:29.429Z,59.13
2023-09-08T20:55:00.469Z,57.65
2023-09-08T20:57:29.240Z,57.22
2023-09-08T20:59:57.458Z,60.40
2023-09-08T21:02:25.711Z,57.63
2023-09-08T21:04:54.016Z,60.92
2023-09-08T21:07:22.281Z,58.50
2023-09-08T21:09:52.344Z,61.55
2023-09-08T21:12:22.055Z,60.70
2023-09-08T21:14:50.349Z,61.13
2023-09-08T21:17:18.560Z,62.10
2023-09-08T21:19:47.136Z,62.30
2023-09-08T21:22:15.405Z,63.33
2023-09-08T21:24:43.677Z,63.80
2023-09-08T21:27:12.151Z,64.25
2023-09-08T21:29:42.824Z,64.90
2023-09-08T21:32:11.134Z,64.47
2023-09-08T21:34:41.261Z,68.28
2023-09-08T21:37:10.374Z,64.90
2023-09-08T21:39:38.721Z,66.35
2023-09-08T21:42:08.702Z,65.20
2023-09-08T21:44:37.081Z,65.47
2023-09-08T21:47:09.472Z,61.95
2023-09-08T21:49:37.911Z,69.07
2023-09-08T21:52:07.758Z,68.00
2023-09-08T21:54:36.131Z,65.30
2023-09-08T21:57:04.575Z,67.28
2023-09-08T21:59:32.901Z,64.43
2023-09-08T22:02:06.630Z,61.25
2023-09-08T22:04:38.995Z,67.38
2023-09-08T22:07:07.610Z,67.75
2023-09-08T22:09:35.836Z,70.38
2023-09-08T22:12:09.411Z,69.65
2023-09-08T22:14:39.219Z,73.15
2023-09-08T22:17:07.530Z,74.38
2023-09-08T22:19:37.696Z,75.20
2023-09-08T22:22:08.981Z,71.93
2023-09-08T22:24:37.347Z,74.15
2023-09-08T22:27:06.023Z,75.57
2023-09-08T22:29:34.340Z,74.60
2023-09-08T22:32:02.528Z,75.93
2023-09-08T22:34:31.296Z,73.90
2023-09-08T22:37:00.961Z,77.32
2023-09-08T22:39:31.177Z,79.72
2023-09-08T22:42:01.687Z,77.38
2023-09-08T22:44:31.523Z,79.10
2023-09-08T22:46:59.795Z,75.85
2023-09-08T22:49:28.483Z,83.68
2023-09-08T22:51:56.712Z,83.75
2023-09-08T22:54:26.531Z,81.03
2023-09-08T22:56:55.117Z,81.20
2023-09-08T22:59:25.022Z,79.68
2023-09-08T23:01:53.288Z,81.10
2023-09-08T23:04:21.695Z,77.63
2023-09-08T23:06:51.903Z,79.50
2023-09-08T23:09:20.367Z,75.00
2023-09-08T23:11:49.956Z,74.80
2023-09-08T23:14:18.219Z,73.43
2023-09-08T23:16:46.764Z,78.60
2023-09-08T23:19:15.096Z,76.78
2023-09-08T23:21:45.723Z,71.60
2023-09-08T23:24:15.774Z,71.97
2023-09-08T23:26:44.051Z,68.72
2023-09-08T23:29:14.376Z,66.80
2023-09-08T23:31:42.705Z,65.57
2023-09-08T23:34:14.816Z,68.40
2023-09-08T23:36:43.271Z,75.30
2023-09-08T23:39:11.869Z,72.38
2023-09-08T23:41:44.058Z,71.72
2023-09-08T23:44:17.723Z,69.97
2023-09-08T23:46:48.039Z,71.32
2023-09-08T23:49:16.287Z,73.13
2023-09-08T23:51:46.613Z,70.60
2023-09-08T23:54:17.392Z,82.43
2023-09-08T23:56:45.701Z,89.70
2023-09-08T23:59:15.368Z,89.03
